Time;durP1;ratioP1;P1;durP2;ratioP2;P2;SDS_P1;SDS_P2;PMS_P1;PMS_P2;Temp;Humidity;BMP_temperature;BMP_pressure;BME280_temperature;BME280_humidity;BME280_pressure;Samples;Min_cycle;Max_cycle;Signal;HPM_P1;HPM_P2
2023/05/07 00:00:18;;;;;;;2.35;1.50;;;;;;;;;;5055544;28;20021;-59
2023/05/07 00:02:45;;;;;;;2.72;1.40;;;;;;;;;;5055650;28;20119;-59
2023/05/07 00:05:11;;;;;;;2.08;1.40;;;;;;;;;;5055676;28;20028;-59
2023/05/07 00:07:37;;;;;;;3.45;1.92;;;;;;;;;;5055993;28;20031;-59
2023/05/07 00:10:04;;;;;;;2.97;1.75;;;;;;;;;;5055302;28;20021;-58
2023/05/07 00:12:33;;;;;;;4.50;1.40;;;;;;;;;;5056045;28;20028;-59
2023/05/07 00:14:59;;;;;;;3.17;1.83;;;;;;;;;;5055179;28;20061;-59
2023/05/07 00:17:25;;;;;;;2.38;1.23;;;;;;;;;;5055436;28;20110;-59
2023/05/07 00:19:51;;;;;;;2.47;1.65;;;;;;;;;;5055382;28;20035;-59
2023/05/07 00:22:17;;;;;;;2.10;1.50;;;;;;;;;;5055865;28;20017;-59
2023/05/07 00:24:43;;;;;;;2.42;1.48;;;;;;;;;;5055547;28;20025;-59
2023/05/07 00:27:09;;;;;;;2.00;1.25;;;;;;;;;;5054878;28;20394;-59
2023/05/07 00:29:36;;;;;;;2.47;1.38;;;;;;;;;;5056010;28;20028;-59
2023/05/07 00:32:02;;;;;;;3.25;1.63;;;;;;;;;;5055122;28;20344;-59
2023/05/07 00:34:28;;;;;;;2.08;1.58;;;;;;;;;;5055053;28;20112;-59
2023/05/07 00:36:54;;;;;;;3.08;1.13;;;;;;;;;;5055432;28;20037;-59
2023/05/07 00:39:20;;;;;;;1.75;1.17;;;;;;;;;;5055327;28;20057;-59
2023/05/07 00:41:47;;;;;;;6.32;1.35;;;;;;;;;;5055458;28;20354;-59
2023/05/07 00:44:13;;;;;;;2.15;1.30;;;;;;;;;;5055629;28;20469;-59
2023/05/07 00:46:39;;;;;;;2.20;1.40;;;;;;;;;;5055426;28;20028;-59
2023/05/07 00:49:05;;;;;;;2.33;1.63;;;;;;;;;;5054705;28;20029;-59
2023/05/07 00:51:31;;;;;;;2.05;1.17;;;;;;;;;;5054679;28;20025;-59
2023/05/07 00:53:57;;;;;;;2.78;1.52;;;;;;;;;;5054909;28;20398;-59
2023/05/07 00:56:24;;;;;;;2.03;1.52;;;;;;;;;;5054717;28;20094;-59
2023/05/07 00:58:50;;;;;;;2.35;1.30;;;;;;;;;;5054367;28;20594;-59
2023/05/07 01:01:16;;;;;;;3.05;1.33;;;;;;;;;;5055017;28;20480;-59
2023/05/07 01:03:42;;;;;;;2.65;1.65;;;;;;;;;;5054510;28;20064;-59
2023/05/07 01:06:09;;;;;;;3.53;1.70;;;;;;;;;;5055051;28;20033;-59
2023/05/07 01:08:35;;;;;;;3.55;1.58;;;;;;;;;;5054513;28;20104;-59
2023/05/07 01:11:01;;;;;;;2.05;1.27;;;;;;;;;;5054401;28;20102;-59
2023/05/07 01:13:28;;;;;;;2.05;1.20;;;;;;;;;;5054301;28;20040;-59
2023/05/07 01:15:54;;;;;;;3.95;1.30;;;;;;;;;;5055101;28;20060;-59
2023/05/07 01:18:20;;;;;;;1.92;1.20;;;;;;;;;;5053972;28;20096;-59
2023/05/07 01:20:46;;;;;;;2.08;1.10;;;;;;;;;;5054783;28;20052;-59
2023/05/07 01:23:12;;;;;;;2.03;1.35;;;;;;;;;;5054237;28;20036;-59
2023/05/07 01:25:38;;;;;;;2.67;1.40;;;;;;;;;;5054958;28;20025;-59
2023/05/07 01:28:05;;;;;;;2.28;1.40;;;;;;;;;;5054722;28;20095;-59
2023/05/07 01:30:31;;;;;;;2.50;1.13;;;;;;;;;;5054602;28;20028;-59
2023/05/07 01:33:01;;;;;;;3.03;1.50;;;;;;;;;;5053942;28;20044;-59
2023/05/07 01:35:33;;;;;;;2.72;1.52;;;;;;;;;;5054536;28;20140;-59
2023/05/07 01:37:59;;;;;;;1.90;1.10;;;;;;;;;;5053756;28;20056;-59
2023/05/07 01:40:25;;;;;;;1.77;1.05;;;;;;;;;;5053916;28;20094;-59
2023/05/07 01:42:51;;;;;;;1.98;1.27;;;;;;;;;;5053851;28;20028;-59
2023/05/07 01:45:17;;;;;;;1.95;1.30;;;;;;;;;;5053867;28;20024;-59
2023/05/07 01:47:43;;;;;;;1.30;0.80;;;;;;;;;;5053891;28;20114;-59
2023/05/07 01:50:09;;;;;;;1.90;1.23;;;;;;;;;;5054038;28;20029;-59
2023/05/07 01:52:36;;;;;;;1.73;1.20;;;;;;;;;;5053755;28;20024;-59
2023/05/07 01:55:02;;;;;;;2.65;1.25;;;;;;;;;;5053779;28;20108;-58
2023/05/07 01:57:27;;;;;;;2.65;1.33;;;;;;;;;;5053500;28;20021;-59
2023/05/07 01:59:53;;;;;;;2.13;1.33;;;;;;;;;;5053660;28;20056;-59
2023/05/07 02:02:19;;;;;;;2.45;1.45;;;;;;;;;;5053968;28;20021;-59
2023/05/07 02:04:45;;;;;;;2.45;1.20;;;;;;;;;;5053893;28;20033;-59
2023/05/07 02:07:11;;;;;;;2.10;1.15;;;;;;;;;;5054453;28;20079;-59
2023/05/07 02:09:37;;;;;;;2.17;1.33;;;;;;;;;;5054192;28;20017;-59
2023/05/07 02:12:03;;;;;;;2.72;1.50;;;;;;;;;;5054209;28;20025;-59
2023/05/07 02:14:29;;;;;;;2.15;1.40;;;;;;;;;;5053556;28;20053;-59
2023/05/07 02:16:55;;;;;;;3.10;1.30;;;;;;;;;;5053518;28;20029;-59
2023/05/07 02:19:21;;;;;;;2.40;1.35;;;;;;;;;;5054013;28;20024;-59
2023/05/07 02:21:48;;;;;;;2.20;1.10;;;;;;;;;;5053519;28;20025;-59
2023/05/07 02:24:14;;;;;;;2.17;1.17;;;;;;;;;;5054012;28;20021;-59
2023/05/07 02:26:43;;;;;;;4.03;1.25;;;;;;;;;;5053760;28;20031;-59
2023/05/07 02:29:09;;;;;;;2.40;1.27;;;;;;;;;;5053896;28;20044;-59
2023/05/07 02:31:35;;;;;;;2.70;1.50;;;;;;;;;;5053961;28;20025;-59
2023/05/07 02:34:01;;;;;;;2.15;1.30;;;;;;;;;;5053313;28;20029;-59
2023/05/07 02:36:27;;;;;;;1.95;1.17;;;;;;;;;;5053295;28;20528;-59
2023/05/07 02:38:53;;;;;;;2.58;1.38;;;;;;;;;;5053354;28;20025;-59
2023/05/07 02:41:20;;;;;;;3.13;1.92;;;;;;;;;;5052537;28;20468;-59
2023/05/07 02:43:46;;;;;;;2.58;1.65;;;;;;;;;;5054073;28;20061;-59
2023/05/07 02:46:12;;;;;;;3.08;1.40;;;;;;;;;;5053651;28;20029;-59
2023/05/07 02:48:38;;;;;;;2.10;1.25;;;;;;;;;;5053310;28;20021;-59
2023/05/07 02:51:05;;;;;;;2.40;1.40;;;;;;;;;;5057028;28;20025;-59
2023/05/07 02:53:31;;;;;;;2.40;1.27;;;;;;;;;;5057499;28;20123;-59
2023/05/07 02:55:57;;;;;;;2.05;1.10;;;;;;;;;;5056971;28;20481;-59
2023/05/07 02:58:24;;;;;;;4.00;1.30;;;;;;;;;;5057484;28;20036;-59
2023/05/07 03:00:50;;;;;;;2.90;1.40;;;;;;;;;;5056908;28;20100;-59
2023/05/07 03:03:16;;;;;;;1.83;0.93;;;;;;;;;;5056796;28;20029;-59
2023/05/07 03:05:42;;;;;;;2.22;1.20;;;;;;;;;;5056891;28;20021;-59
2023/05/07 03:08:08;;;;;;;1.80;1.13;;;;;;;;;;5056758;28;20036;-59
2023/05/07 03:10:34;;;;;;;2.25;1.48;;;;;;;;;;5056763;28;20025;-59
2023/05/07 03:13:01;;;;;;;2.45;1.70;;;;;;;;;;5057372;28;20389;-59
2023/05/07 03:15:27;;;;;;;3.22;1.75;;;;;;;;;;5056926;28;20041;-59
2023/05/07 03:17:53;;;;;;;2.72;1.70;;;;;;;;;;5056603;28;20033;-59
2023/05/07 03:20:19;;;;;;;3.72;1.35;;;;;;;;;;5056510;28;20108;-58
2023/05/07 03:22:45;;;;;;;2.70;1.83;;;;;;;;;;5056549;28;20017;-59
2023/05/07 03:25:11;;;;;;;2.25;1.50;;;;;;;;;;5056427;28;20068;-59
2023/05/07 03:27:37;;;;;;;2.45;1.85;;;;;;;;;;5057027;28;20025;-59
2023/05/07 03:30:04;;;;;;;2.42;1.50;;;;;;;;;;5056245;28;20063;-59
2023/05/07 03:32:30;;;;;;;3.22;1.88;;;;;;;;;;5056415;28;20054;-59
2023/05/07 03:34:56;;;;;;;2.17;1.23;;;;;;;;;;5056338;28;20071;-59
2023/05/07 03:37:22;;;;;;;2.15;1.55;;;;;;;;;;5055923;28;20040;-59
2023/05/07 03:39:48;;;;;;;4.82;2.05;;;;;;;;;;5056471;28;20448;-59
2023/05/07 03:42:14;;;;;;;2.63;1.42;;;;;;;;;;5056266;28;20028;-59
2023/05/07 03:44:40;;;;;;;2.20;1.50;;;;;;;;;;5056150;28;20113;-59
2023/05/07 03:47:06;;;;;;;6.10;1.48;;;;;;;;;;5056195;28;20459;-59
2023/05/07 03:49:32;;;;;;;2.85;1.83;;;;;;;;;;5056420;28;20027;-59
2023/05/07 03:51:58;;;;;;;2.78;1.40;;;;;;;;;;5056326;28;20467;-58
2023/05/07 03:54:24;;;;;;;2.72;1.83;;;;;;;;;;5055964;28;20112;-59
2023/05/07 03:56:50;;;;;;;2.85;1.65;;;;;;;;;;5055924;28;20075;-59
2023/05/07 03:59:16;;;;;;;1.98;1.35;;;;;;;;;;5055933;28;20032;-59
2023/05/07 04:01:42;;;;;;;2.80;1.40;;;;;;;;;;5055779;28;20064;-59
2023/05/07 04:04:08;;;;;;;3.20;2.08;;;;;;;;;;5056048;28;20036;-59
2023/05/07 04:06:34;;;;;;;2.20;1.38;;;;;;;;;;5055779;28;20070;-59
2023/05/07 04:09:00;;;;;;;2.40;1.45;;;;;;;;;;5055637;28;20028;-59
2023/05/07 04:11:26;;;;;;;2.35;1.52;;;;;;;;;;5055567;28;20021;-59
2023/05/07 04:13:52;;;;;;;2.95;1.77;;;;;;;;;;5055964;28;20390;-59
2023/05/07 04:16:18;;;;;;;2.47;1.77;;;;;;;;;;5056732;28;20052;-59
2023/05/07 04:18:44;;;;;;;2.90;1.85;;;;;;;;;;5055430;28;20029;-59
2023/05/07 04:21:17;;;;;;;2.70;1.55;;;;;;;;;;5055999;28;20108;-59
2023/05/07 04:23:43;;;;;;;2.53;1.67;;;;;;;;;;5055493;28;20044;-59
2023/05/07 04:26:09;;;;;;;1.98;1.33;;;;;;;;;;5056026;28;20033;-59
2023/05/07 04:28:35;;;;;;;2.13;1.40;;;;;;;;;;5055337;28;20028;-59
2023/05/07 04:31:01;;;;;;;2.35;1.40;;;;;;;;;;5055333;28;20092;-59
2023/05/07 04:33:27;;;;;;;2.80;2.00;;;;;;;;;;5055228;28;20120;-59
2023/05/07 04:35:53;;;;;;;2.63;1.88;;;;;;;;;;5055793;28;20025;-58
2023/05/07 04:38:19;;;;;;;2.10;1.38;;;;;;;;;;5055437;28;20459;-59
2023/05/07 04:40:46;;;;;;;2.65;1.67;;;;;;;;;;5055434;28;20029;-59
2023/05/07 04:43:13;;;;;;;2.53;1.90;;;;;;;;;;5055589;28;20037;-59
2023/05/07 04:45:41;;;;;;;2.30;1.58;;;;;;;;;;5055068;28;20417;-59
2023/05/07 04:48:07;;;;;;;3.47;2.17;;;;;;;;;;5055437;28;20025;-59
2023/05/07 04:50:33;;;;;;;2.70;1.67;;;;;;;;;;5054820;28;20028;-59
2023/05/07 04:52:59;;;;;;;2.42;1.67;;;;;;;;;;5054815;28;20423;-59
2023/05/07 04:55:25;;;;;;;4.15;2.10;;;;;;;;;;5055649;28;20036;-59
2023/05/07 04:57:51;;;;;;;2.72;2.05;;;;;;;;;;5055085;28;20146;-59
2023/05/07 05:00:19;;;;;;;2.58;1.80;;;;;;;;;;5055023;28;20029;-59
2023/05/07 05:02:45;;;;;;;2.88;2.00;;;;;;;;;;5054612;28;20032;-59
2023/05/07 05:05:11;;;;;;;3.53;2.28;;;;;;;;;;5054655;28;20091;-59
2023/05/07 05:07:37;;;;;;;3.45;2.88;;;;;;;;;;5054948;28;20051;-59
2023/05/07 05:10:03;;;;;;;4.82;3.00;;;;;;;;;;5055074;28;20028;-59
2023/05/07 05:12:30;;;;;;;3.03;2.33;;;;;;;;;;5053861;28;20051;-59
2023/05/07 05:14:56;;;;;;;3.10;2.03;;;;;;;;;;5054230;28;20052;-58
2023/05/07 05:17:23;;;;;;;6.68;2.60;;;;;;;;;;5054882;28;20045;-58
2023/05/07 05:19:49;;;;;;;4.22;2.50;;;;;;;;;;5055226;28;20025;-59
2023/05/07 05:22:15;;;;;;;2.00;1.48;;;;;;;;;;5054810;28;20029;-59
2023/05/07 05:24:41;;;;;;;2.75;2.13;;;;;;;;;;5054774;28;20099;-59
2023/05/07 05:27:07;;;;;;;3.08;2.10;;;;;;;;;;5054088;28;20028;-59
2023/05/07 05:29:33;;;;;;;2.50;1.80;;;;;;;;;;5054563;28;20064;-59
2023/05/07 05:31:59;;;;;;;3.20;2.22;;;;;;;;;;5054193;28;20028;-59
2023/05/07 05:34:25;;;;;;;3.60;2.45;;;;;;;;;;5054120;28;20105;-59
2023/05/07 05:36:51;;;;;;;2.80;1.90;;;;;;;;;;5054645;28;20041;-59
2023/05/07 05:39:17;;;;;;;2.75;2.13;;;;;;;;;;5054813;28;20021;-59
2023/05/07 05:41:43;;;;;;;2.10;1.52;;;;;;;;;;5054042;28;20032;-59
2023/05/07 05:44:09;;;;;;;2.70;1.83;;;;;;;;;;5054028;28;20029;-59
2023/05/07 05:46:35;;;;;;;3.45;2.08;;;;;;;;;;5054594;28;20459;-59
2023/05/07 05:49:01;;;;;;;2.83;1.80;;;;;;;;;;5054403;28;20017;-59
2023/05/07 05:51:27;;;;;;;2.35;1.90;;;;;;;;;;5054155;28;20543;-59
2023/05/07 05:53:53;;;;;;;3.00;2.13;;;;;;;;;;5054417;28;20370;-59
2023/05/07 05:56:19;;;;;;;2.75;1.85;;;;;;;;;;5053919;28;20029;-59
2023/05/07 05:58:45;;;;;;;3.33;2.50;;;;;;;;;;5054330;28;20013;-59
2023/05/07 06:01:11;;;;;;;2.58;1.85;;;;;;;;;;5054113;28;20509;-59
2023/05/07 06:03:37;;;;;;;3.63;2.30;;;;;;;;;;5053634;28;20387;-59
2023/05/07 06:06:03;;;;;;;2.60;1.90;;;;;;;;;;5054110;28;20028;-59
2023/05/07 06:08:30;;;;;;;2.53;1.98;;;;;;;;;;5053625;28;20025;-59
2023/05/07 06:10:56;;;;;;;3.95;2.58;;;;;;;;;;5053689;28;20025;-59
2023/05/07 06:13:22;;;;;;;2.85;1.65;;;;;;;;;;5054110;28;20029;-59
2023/05/07 06:15:49;;;;;;;3.85;2.70;;;;;;;;;;5053807;28;20066;-59
2023/05/07 06:18:15;;;;;;;3.03;2.20;;;;;;;;;;5054134;28;20361;-59
2023/05/07 06:20:41;;;;;;;2.70;2.15;;;;;;;;;;5053858;28;20087;-59
2023/05/07 06:23:07;;;;;;;3.38;2.22;;;;;;;;;;5054176;28;20025;-59
2023/05/07 06:25:33;;;;;;;3.67;2.00;;;;;;;;;;5057472;28;20017;-59
2023/05/07 06:27:59;;;;;;;3.63;2.13;;;;;;;;;;5057598;28;20028;-59
2023/05/07 06:30:26;;;;;;;3.15;2.13;;;;;;;;;;5056982;28;20028;-59
2023/05/07 06:32:52;;;;;;;3.30;2.17;;;;;;;;;;5057367;28;20459;-59
2023/05/07 06:35:18;;;;;;;2.63;2.03;;;;;;;;;;5057452;28;20348;-59
2023/05/07 06:37:45;;;;;;;4.15;2.97;;;;;;;;;;5057439;28;20017;-59
2023/05/07 06:40:11;;;;;;;3.58;2.55;;;;;;;;;;5057367;28;20064;-59
2023/05/07 06:42:37;;;;;;;2.88;2.00;;;;;;;;;;5057321;28;20371;-59
2023/05/07 06:45:03;;;;;;;3.15;2.17;;;;;;;;;;5057264;28;20020;-59
2023/05/07 06:47:29;;;;;;;2.88;2.35;;;;;;;;;;5056982;28;20462;-59
2023/05/07 06:49:55;;;;;;;3.03;2.40;;;;;;;;;;5057135;28;20074;-59
2023/05/07 06:52:21;;;;;;;3.30;2.45;;;;;;;;;;5057087;28;20021;-59
2023/05/07 06:54:47;;;;;;;3.22;2.47;;;;;;;;;;5057791;28;20032;-59
2023/05/07 06:57:13;;;;;;;3.65;2.92;;;;;;;;;;5057869;28;20021;-59
2023/05/07 06:59:39;;;;;;;3.83;2.35;;;;;;;;;;5057573;28;20067;-59
2023/05/07 07:02:05;;;;;;;2.83;2.30;;;;;;;;;;5056926;28;20013;-59
2023/05/07 07:04:31;;;;;;;5.25;3.40;;;;;;;;;;5057207;28;20479;-59
2023/05/07 07:06:57;;;;;;;2.92;2.63;;;;;;;;;;5057204;28;20123;-59
2023/05/07 07:09:23;;;;;;;4.03;2.63;;;;;;;;;;5056768;28;20021;-59
2023/05/07 07:11:49;;;;;;;4.57;2.63;;;;;;;;;;5056493;28;20032;-59
2023/05/07 07:14:15;;;;;;;3.42;2.78;;;;;;;;;;5056665;28;20033;-59
2023/05/07 07:16:41;;;;;;;3.88;2.92;;;;;;;;;;5057064;28;20021;-59
2023/05/07 07:19:07;;;;;;;3.65;2.30;;;;;;;;;;5056595;28;20017;-59
2023/05/07 07:21:33;;;;;;;4.25;2.72;;;;;;;;;;5056897;28;20021;-59
2023/05/07 07:23:59;;;;;;;6.00;3.25;;;;;;;;;;5056231;28;20107;-59
2023/05/07 07:26:25;;;;;;;3.72;2.70;;;;;;;;;;5057373;28;20052;-59
2023/05/07 07:28:51;;;;;;;3.00;2.38;;;;;;;;;;5056425;28;20025;-59
2023/05/07 07:31:17;;;;;;;3.42;2.42;;;;;;;;;;5056466;28;20025;-60
2023/05/07 07:33:43;;;;;;;3.78;2.58;;;;;;;;;;5056261;28;20060;-59
2023/05/07 07:36:08;;;;;;;4.13;3.08;;;;;;;;;;5056458;28;20037;-59
2023/05/07 07:38:34;;;;;;;3.47;2.83;;;;;;;;;;5056796;28;20072;-59
2023/05/07 07:41:01;;;;;;;3.75;2.53;;;;;;;;;;5055814;28;20401;-59
2023/05/07 07:43:27;;;;;;;2.97;2.42;;;;;;;;;;5056030;28;20087;-59
2023/05/07 07:45:53;;;;;;;3.42;2.55;;;;;;;;;;5056806;28;20394;-59
2023/05/07 07:48:19;;;;;;;4.18;2.47;;;;;;;;;;5056391;28;20113;-59
2023/05/07 07:50:45;;;;;;;4.63;2.75;;;;;;;;;;5055704;28;20013;-59
2023/05/07 07:53:11;;;;;;;3.75;2.83;;;;;;;;;;5056048;28;20031;-59
2023/05/07 07:55:40;;;;;;;3.85;2.45;;;;;;;;;;5056765;28;20025;-59
2023/05/07 07:58:06;;;;;;;4.32;2.05;;;;;;;;;;5055761;28;20025;-59
2023/05/07 08:00:32;;;;;;;3.38;2.67;;;;;;;;;;5055803;28;20104;-59
2023/05/07 08:02:58;;;;;;;2.47;2.22;;;;;;;;;;5055750;28;20025;-60
2023/05/07 08:05:25;;;;;;;3.35;2.30;;;;;;;;;;5056053;28;20079;-60
2023/05/07 08:07:52;;;;;;;3.38;2.70;;;;;;;;;;5055691;28;20028;-59
2023/05/07 08:10:21;;;;;;;3.42;2.67;;;;;;;;;;5056154;28;20056;-59
2023/05/07 08:12:48;;;;;;;4.03;3.00;;;;;;;;;;5055598;28;20024;-59
2023/05/07 08:15:14;;;;;;;3.08;2.50;;;;;;;;;;5056365;28;20055;-59
2023/05/07 08:17:40;;;;;;;2.88;2.20;;;;;;;;;;5056028;28;20021;-59
2023/05/07 08:20:07;;;;;;;3.58;3.10;;;;;;;;;;5055813;28;20025;-59
2023/05/07 08:22:34;;;;;;;4.20;2.90;;;;;;;;;;5056148;28;20394;-59
2023/05/07 08:25:01;;;;;;;3.60;2.70;;;;;;;;;;5055373;28;20024;-59
2023/05/07 08:27:27;;;;;;;5.60;3.33;;;;;;;;;;5056080;28;20056;-59
2023/05/07 08:29:52;;;;;;;2.65;2.13;;;;;;;;;;5055325;28;20064;-59
2023/05/07 08:32:18;;;;;;;3.22;2.53;;;;;;;;;;5055144;28;20104;-59
2023/05/07 08:34:45;;;;;;;3.47;2.33;;;;;;;;;;5054595;28;20112;-60
2023/05/07 08:37:11;;;;;;;5.38;2.33;;;;;;;;;;5056003;28;20051;-59
2023/05/07 08:39:37;;;;;;;3.80;2.72;;;;;;;;;;5055153;28;20471;-59
2023/05/07 08:42:04;;;;;;;2.78;2.10;;;;;;;;;;5054933;28;20115;-59
2023/05/07 08:44:34;;;;;;;3.05;2.25;;;;;;;;;;5054950;28;20025;-60
2023/05/07 08:47:01;;;;;;;3.20;2.60;;;;;;;;;;5054662;28;20029;-59
2023/05/07 08:49:28;;;;;;;3.50;2.67;;;;;;;;;;5055128;28;20028;-59
2023/05/07 08:51:55;;;;;;;3.60;2.38;;;;;;;;;;5054776;28;20104;-59
2023/05/07 08:54:21;;;;;;;2.72;2.03;;;;;;;;;;5054671;28;20530;-59
2023/05/07 08:56:48;;;;;;;3.15;2.30;;;;;;;;;;5055384;28;20029;-59
2023/05/07 08:59:14;;;;;;;4.78;2.90;;;;;;;;;;5054396;28;20021;-59
2023/05/07 09:01:40;;;;;;;2.90;2.20;;;;;;;;;;5054518;28;20025;-59
2023/05/07 09:04:06;;;;;;;3.58;2.08;;;;;;;;;;5054809;28;20029;-59
2023/05/07 09:06:33;;;;;;;2.58;1.85;;;;;;;;;;5054423;28;20063;-59
2023/05/07 09:09:01;;;;;;;3.63;2.47;;;;;;;;;;5055233;28;20036;-59
2023/05/07 09:11:27;;;;;;;3.25;2.33;;;;;;;;;;5054297;28;20024;-59
2023/05/07 09:13:57;;;;;;;2.75;2.10;;;;;;;;;;5054199;28;20060;-59
2023/05/07 09:16:24;;;;;;;2.55;1.95;;;;;;;;;;5053664;28;20116;-59
2023/05/07 09:18:53;;;;;;;2.30;1.45;;;;;;;;;;5054710;28;20569;-59
2023/05/07 09:21:19;;;;;;;2.83;1.65;;;;;;;;;;5054946;28;20021;-59
2023/05/07 09:23:45;;;;;;;3.15;2.17;;;;;;;;;;5054674;28;20082;-59
2023/05/07 09:26:11;;;;;;;3.45;2.20;;;;;;;;;;5054595;28;20029;-59
2023/05/07 09:28:46;;;;;;;4.68;2.13;;;;;;;;;;5054727;28;20017;-59
2023/05/07 09:31:12;;;;;;;2.60;1.73;;;;;;;;;;5053844;28;20021;-59
2023/05/07 09:33:39;;;;;;;2.67;1.85;;;;;;;;;;5054536;28;20182;-59
2023/05/07 09:36:05;;;;;;;2.92;1.83;;;;;;;;;;5054469;28;20017;-60
2023/05/07 09:38:32;;;;;;;5.80;1.88;;;;;;;;;;5053966;28;20029;-59
2023/05/07 09:41:16;;;;;;;2.97;2.30;;;;;;;;;;5053849;28;20017;-59
2023/05/07 09:43:42;;;;;;;3.05;1.88;;;;;;;;;;5054395;28;20074;-59
2023/05/07 09:46:16;;;;;;;2.75;2.22;;;;;;;;;;5054341;28;20115;-60
2023/05/07 09:48:43;;;;;;;3.00;2.00;;;;;;;;;;5053664;28;20382;-59
2023/05/07 09:51:12;;;;;;;2.25;1.35;;;;;;;;;;5053512;28;20029;-59
2023/05/07 09:53:38;;;;;;;3.00;1.65;;;;;;;;;;5053521;28;20486;-59
2023/05/07 09:56:05;;;;;;;3.35;2.15;;;;;;;;;;5053580;28;20025;-59
2023/05/07 09:58:32;;;;;;;2.30;1.60;;;;;;;;;;5053564;28;20017;-59
2023/05/07 10:00:58;;;;;;;2.33;1.88;;;;;;;;;;5053676;28;20024;-60
2023/05/07 10:03:26;;;;;;;2.88;2.08;;;;;;;;;;5053474;28;20032;-59
2023/05/07 10:05:52;;;;;;;3.53;1.95;;;;;;;;;;5053794;28;20043;-59
2023/05/07 10:08:19;;;;;;;2.53;1.65;;;;;;;;;;5054126;28;20037;-60
2023/05/07 10:10:45;;;;;;;2.85;1.65;;;;;;;;;;5054026;28;20101;-60
2023/05/07 10:13:12;;;;;;;2.85;1.90;;;;;;;;;;5053612;28;20024;-60
2023/05/07 10:15:38;;;;;;;3.00;2.10;;;;;;;;;;5053994;28;20442;-59
2023/05/07 10:18:05;;;;;;;3.25;1.80;;;;;;;;;;5054045;28;20029;-60
2023/05/07 10:20:31;;;;;;;3.65;2.05;;;;;;;;;;5053364;28;20152;-60
2023/05/07 10:22:59;;;;;;;4.35;1.90;;;;;;;;;;5053072;28;20036;-60
2023/05/07 10:25:30;;;;;;;2.95;2.05;;;;;;;;;;5053579;28;20028;-60
2023/05/07 10:27:57;;;;;;;3.78;2.13;;;;;;;;;;5053363;28;20035;-60
2023/05/07 10:30:26;;;;;;;3.25;1.67;;;;;;;;;;5053296;28;20083;-60
2023/05/07 10:32:55;;;;;;;3.15;1.52;;;;;;;;;;5052975;28;20475;-60
2023/05/07 10:35:23;;;;;;;2.30;1.67;;;;;;;;;;5053586;28;20036;-60
2023/05/07 10:37:49;;;;;;;3.40;1.88;;;;;;;;;;5053431;28;20090;-60
2023/05/07 10:40:17;;;;;;;3.25;2.20;;;;;;;;;;5053823;28;20430;-60
2023/05/07 10:43:04;;;;;;;2.45;1.60;;;;;;;;;;5053860;28;20021;-60
2023/05/07 10:45:30;;;;;;;3.15;2.20;;;;;;;;;;5053178;28;20025;-60
2023/05/07 10:48:15;;;;;;;3.58;1.92;;;;;;;;;;5053572;28;20524;-59
2023/05/07 10:50:41;;;;;;;2.80;1.80;;;;;;;;;;5053087;28;20075;-60
2023/05/07 10:53:19;;;;;;;2.65;1.73;;;;;;;;;;5053125;28;20021;-60
2023/05/07 10:55:47;;;;;;;2.78;1.58;;;;;;;;;;5053632;28;20025;-60
2023/05/07 10:58:22;;;;;;;4.53;1.67;;;;;;;;;;5052998;28;20408;-60
2023/05/07 11:00:51;;;;;;;2.60;1.83;;;;;;;;;;5053549;28;20040;-60
2023/05/07 11:03:17;;;;;;;5.50;2.38;;;;;;;;;;5053361;28;20067;-60
2023/05/07 11:05:43;;;;;;;2.78;1.75;;;;;;;;;;5053901;28;20031;-60
2023/05/07 11:08:09;;;;;;;2.30;1.52;;;;;;;;;;5053710;28;20021;-60
2023/05/07 11:10:55;;;;;;;3.35;1.60;;;;;;;;;;5055204;28;20494;-60
2023/05/07 11:13:39;;;;;;;2.42;1.27;;;;;;;;;;5056657;28;20036;-60
2023/05/07 11:16:15;;;;;;;2.00;1.30;;;;;;;;;;5056679;28;20059;-60
2023/05/07 11:18:57;;;;;;;2.63;1.50;;;;;;;;;;5056901;28;20021;-60
2023/05/07 11:21:36;;;;;;;2.58;1.88;;;;;;;;;;5057029;28;20018;-60
2023/05/07 11:24:03;;;;;;;1.95;1.30;;;;;;;;;;5057013;28;20027;-60
2023/05/07 11:26:30;;;;;;;3.38;1.20;;;;;;;;;;5057378;28;20021;-60
2023/05/07 11:28:57;;;;;;;4.00;1.42;;;;;;;;;;5056521;28;20017;-60
2023/05/07 11:31:28;;;;;;;4.20;1.52;;;;;;;;;;5056399;28;20021;-60
2023/05/07 11:33:54;;;;;;;3.47;1.30;;;;;;;;;;5056597;28;20061;-60
2023/05/07 11:36:22;;;;;;;2.58;1.17;;;;;;;;;;5056891;28;20021;-60
2023/05/07 11:38:48;;;;;;;3.22;1.30;;;;;;;;;;5056300;28;20059;-60
2023/05/07 11:41:14;;;;;;;2.53;1.65;;;;;;;;;;5056205;28;20363;-60
2023/05/07 11:43:55;;;;;;;2.60;1.88;;;;;;;;;;5056170;28;20025;-60
2023/05/07 11:46:21;;;;;;;3.17;1.67;;;;;;;;;;5056732;28;20387;-60
2023/05/07 11:48:47;;;;;;;2.45;1.55;;;;;;;;;;5056416;28;20390;-60
2023/05/07 11:51:13;;;;;;;2.97;1.60;;;;;;;;;;5055960;28;20036;-60
2023/05/07 11:53:42;;;;;;;2.88;2.20;;;;;;;;;;5056189;28;20041;-60
2023/05/07 11:56:15;;;;;;;2.33;1.50;;;;;;;;;;5055745;28;20033;-60
2023/05/07 11:58:41;;;;;;;2.10;1.27;;;;;;;;;;5056271;28;20033;-60
2023/05/07 12:01:08;;;;;;;4.13;1.83;;;;;;;;;;5055818;28;20021;-60
2023/05/07 12:03:35;;;;;;;2.50;1.85;;;;;;;;;;5055635;28;20032;-60
2023/05/07 12:06:01;;;;;;;5.38;1.85;;;;;;;;;;5055584;28;20021;-60
2023/05/07 12:08:27;;;;;;;5.20;2.35;;;;;;;;;;5055411;28;20029;-60
2023/05/07 12:10:53;;;;;;;3.08;2.15;;;;;;;;;;5056031;28;20095;-59
2023/05/07 12:13:20;;;;;;;3.17;2.15;;;;;;;;;;5055508;28;20029;-59
2023/05/07 12:15:46;;;;;;;4.03;1.73;;;;;;;;;;5055815;28;20048;-60
2023/05/07 12:18:12;;;;;;;1.98;1.20;;;;;;;;;;5055787;28;20131;-59
2023/05/07 12:20:39;;;;;;;7.07;1.80;;;;;;;;;;5055600;28;20052;-60
2023/05/07 12:23:05;;;;;;;3.40;2.42;;;;;;;;;;5054286;28;20072;-59
2023/05/07 12:25:32;;;;;;;3.97;1.50;;;;;;;;;;5055688;28;20021;-60
2023/05/07 12:28:00;;;;;;;4.55;2.13;;;;;;;;;;5054963;28;20029;-60
2023/05/07 12:30:26;;;;;;;4.72;1.38;;;;;;;;;;5055280;28;20055;-60
2023/05/07 12:32:55;;;;;;;5.50;1.17;;;;;;;;;;5054810;28;20033;-60
2023/05/07 12:35:27;;;;;;;1.75;1.13;;;;;;;;;;5054550;28;20431;-59
2023/05/07 12:37:56;;;;;;;2.38;1.35;;;;;;;;;;5055818;28;20021;-59
2023/05/07 12:40:22;;;;;;;6.05;1.70;;;;;;;;;;5054884;28;20111;-59
2023/05/07 12:42:54;;;;;;;2.28;1.25;;;;;;;;;;5055268;28;20071;-59
2023/05/07 12:45:20;;;;;;;3.17;2.00;;;;;;;;;;5055736;28;20063;-60
2023/05/07 12:47:46;;;;;;;2.47;1.40;;;;;;;;;;5055064;28;20025;-59
2023/05/07 12:50:13;;;;;;;2.03;1.13;;;;;;;;;;5055051;28;20482;-59
2023/05/07 12:52:40;;;;;;;4.68;1.00;;;;;;;;;;5054646;28;20025;-59
2023/05/07 12:55:06;;;;;;;1.30;0.63;;;;;;;;;;5054922;28;20037;-59
2023/05/07 12:57:38;;;;;;;2.17;0.52;;;;;;;;;;5055108;28;20036;-59
2023/05/07 13:00:04;;;;;;;1.33;0.82;;;;;;;;;;5055084;28;20108;-59
2023/05/07 13:02:34;;;;;;;3.38;0.82;;;;;;;;;;5054986;28;20036;-59
2023/05/07 13:05:00;;;;;;;2.50;0.73;;;;;;;;;;5054646;28;20355;-59
2023/05/07 13:07:26;;;;;;;4.03;1.40;;;;;;;;;;5054878;28;20079;-59
2023/05/07 13:09:52;;;;;;;4.72;1.05;;;;;;;;;;5054566;28;20128;-59
2023/05/07 13:12:18;;;;;;;1.95;0.77;;;;;;;;;;5054438;28;20025;-59
2023/05/07 13:14:44;;;;;;;2.55;1.13;;;;;;;;;;5054588;28;20084;-59
2023/05/07 13:17:10;;;;;;;1.77;0.98;;;;;;;;;;5054658;28;20043;-59
2023/05/07 13:19:37;;;;;;;2.13;1.05;;;;;;;;;;5054690;28;20071;-59
2023/05/07 13:22:03;;;;;;;1.60;1.00;;;;;;;;;;5054863;28;20033;-59
2023/05/07 13:24:29;;;;;;;8.43;1.48;;;;;;;;;;5054649;28;20028;-59
2023/05/07 13:26:55;;;;;;;1.60;0.88;;;;;;;;;;5054293;28;20021;-59
2023/05/07 13:29:28;;;;;;;2.75;1.63;;;;;;;;;;5054176;28;20033;-59
2023/05/07 13:31:54;;;;;;;2.28;1.02;;;;;;;;;;5054705;28;20056;-59
2023/05/07 13:34:20;;;;;;;3.88;2.03;;;;;;;;;;5054008;28;20024;-59
2023/05/07 13:36:46;;;;;;;1.25;0.70;;;;;;;;;;5054685;28;20459;-59
2023/05/07 13:39:12;;;;;;;1.25;0.70;;;;;;;;;;5054077;28;20398;-59
2023/05/07 13:41:38;;;;;;;1.55;0.70;;;;;;;;;;5053951;28;20043;-59
2023/05/07 13:44:04;;;;;;;1.42;1.02;;;;;;;;;;5053620;28;20119;-59
2023/05/07 13:46:30;;;;;;;1.05;0.63;;;;;;;;;;5054076;28;20025;-59
2023/05/07 13:48:56;;;;;;;1.23;0.57;;;;;;;;;;5054412;28;20023;-59
2023/05/07 13:51:22;;;;;;;1.38;0.80;;;;;;;;;;5053823;28;20021;-59
2023/05/07 13:53:48;;;;;;;2.40;0.60;;;;;;;;;;5053761;28;20029;-58
2023/05/07 13:56:15;;;;;;;0.90;0.40;;;;;;;;;;5054380;28;20025;-59
2023/05/07 13:58:41;;;;;;;0.98;0.57;;;;;;;;;;5054319;28;20031;-59
2023/05/07 14:01:07;;;;;;;3.53;1.10;;;;;;;;;;5054115;28;20063;-59
2023/05/07 14:03:33;;;;;;;2.38;1.25;;;;;;;;;;5053777;28;20478;-59
2023/05/07 14:06:01;;;;;;;2.40;1.33;;;;;;;;;;5053986;28;20429;-59
2023/05/07 14:08:27;;;;;;;2.88;1.77;;;;;;;;;;5054168;28;20029;-59
2023/05/07 14:10:53;;;;;;;2.90;2.08;;;;;;;;;;5053696;28;20033;-59
2023/05/07 14:13:19;;;;;;;2.00;1.42;;;;;;;;;;5053394;28;20455;-59
2023/05/07 14:15:46;;;;;;;2.55;1.42;;;;;;;;;;5054121;28;20049;-59
2023/05/07 14:18:12;;;;;;;2.15;1.33;;;;;;;;;;5053495;28;20056;-58
2023/05/07 14:20:38;;;;;;;2.75;1.48;;;;;;;;;;5053569;28;20028;-59
2023/05/07 14:23:05;;;;;;;3.13;1.85;;;;;;;;;;5054078;28;20367;-59
2023/05/07 14:25:31;;;;;;;2.80;1.90;;;;;;;;;;5054144;28;20040;-59
2023/05/07 14:27:57;;;;;;;4.60;2.03;;;;;;;;;;5053738;28;20025;-59
2023/05/07 14:30:24;;;;;;;5.90;2.03;;;;;;;;;;5053931;28;20100;-59
2023/05/07 14:32:50;;;;;;;3.25;2.10;;;;;;;;;;5054151;28;20037;-59
2023/05/07 14:35:16;;;;;;;4.28;2.40;;;;;;;;;;5053060;28;20475;-59
2023/05/07 14:37:43;;;;;;;3.17;2.28;;;;;;;;;;5053479;28;20025;-59
2023/05/07 14:40:09;;;;;;;4.40;2.28;;;;;;;;;;5053363;28;20053;-57